Main page
METAR-TAF:

METAR-TAF

Airports :

Sialkot International Airport

Sialkot, Pakistan

latitude: 32-32N, longitude: 74-22E, elevation: 255 m

Current weather observation

The report was made 15 hours and 55 minutes ago, at 10:00 UTC
Wind 10 kt from the Southwest
Temperature 34°C
Humidity 13%
Pressure 1012 hPa
Visibility: 7000 m

METAR: OPST 101000Z 23010KT 7000 NSC 34/02 Q1012 NOSIG RH14

Time: 06:55 (01:55 UTC)

Forecast

The report was made 16 hours and 10 minutes ago, at 09:45 UTC
Forecast valid from 10 at 12 UTC to 11 at 18 UTC
Wind 6 kt from the Northwest
Visibility: 5000 m
Few clouds at a height of 10000 ft
haze
Temporary
from 11 at 00 UTC to 11 at 04 UTC
Wind 3 kt from the Northeast

TAF: OPST 100945Z 1012/1118 31006KT 5000 HZ FEW100 TX34/1110Z TN14/1100Z TEMPO 1100/1104 05003KT

Weather observations and forecasts of more than 4000 airports (METAR and TAF reports).

The available stations are represented by yellow and red dots on the map.

Hover mouse over dot to see the name of the station.

Then click to see weather observations and forecasts.

To change the map : click on the green buttons with a black cross to zoom in, on the green button with a dash to zoom out, or on the green arrows for adjacent maps.


METAR-TAF: